createdAt,value
2019-06-07T00:00:39.217Z,1002.11
2019-06-07T00:05:31.245Z,1002.27
2019-06-07T00:10:36.513Z,1002.22
2019-06-07T00:15:31.166Z,1002.26
2019-06-07T00:20:30.111Z,1002.18
2019-06-07T00:25:28.974Z,1002.04
2019-06-07T00:30:41.167Z,1001.95
2019-06-07T00:35:29.837Z,1001.99
2019-06-07T00:40:32.053Z,1002.06
2019-06-07T00:45:28.708Z,1002.09
2019-06-07T00:50:28.737Z,1002.04
2019-06-07T00:55:28.574Z,1002.10
2019-06-07T01:00:28.562Z,1002.01
2019-06-07T01:05:31.460Z,1002.04
2019-06-07T01:10:51.328Z,1002.01
2019-06-07T01:15:29.514Z,1001.98
2019-06-07T01:20:28.429Z,1001.97
2019-06-07T01:25:29.038Z,1001.96
2019-06-07T01:30:29.270Z,1001.91
2019-06-07T01:35:29.999Z,1002.03
2019-06-07T01:40:32.405Z,1001.86
2019-06-07T01:45:30.872Z,1001.83
2019-06-07T01:50:37.683Z,1001.75
2019-06-07T01:55:32.365Z,1001.72
2019-06-07T02:00:32.309Z,1001.60
2019-06-07T02:05:30.862Z,1001.61
2019-06-07T02:10:32.508Z,1001.53
2019-06-07T02:15:32.037Z,1001.47
2019-06-07T02:20:32.117Z,1001.48
2019-06-07T02:25:40.605Z,1001.37
2019-06-07T02:30:44.707Z,1001.31
2019-06-07T02:35:34.774Z,1001.22
2019-06-07T02:40:35.389Z,1001.15
2019-06-07T02:45:35.414Z,1001.14
2019-06-07T02:50:31.492Z,1000.97
2019-06-07T02:55:31.259Z,1000.88
2019-06-07T03:00:47.511Z,1000.88
2019-06-07T03:05:30.545Z,1000.82
2019-06-07T03:10:28.627Z,1000.71
2019-06-07T03:15:35.388Z,1000.68
2019-06-07T03:20:32.779Z,1000.79
2019-06-07T03:25:28.193Z,1000.82
2019-06-07T03:30:48.057Z,1000.64
2019-06-07T03:35:30.990Z,1000.57
2019-06-07T03:40:26.962Z,1000.47
2019-06-07T03:45:28.625Z,1000.46
2019-06-07T03:50:30.562Z,1000.38
2019-06-07T03:55:30.550Z,1000.35
2019-06-07T04:00:29.668Z,1000.36
2019-06-07T04:05:28.236Z,1000.31
2019-06-07T04:10:44.900Z,1000.24
2019-06-07T04:15:28.123Z,1000.21
2019-06-07T04:20:26.450Z,1000.33
2019-06-07T04:25:26.461Z,1000.24
2019-06-07T04:30:26.266Z,1000.15
2019-06-07T04:35:26.489Z,1000.22
2019-06-07T04:40:27.545Z,1000.05
2019-06-07T04:45:40.667Z,999.93
2019-06-07T04:50:27.147Z,999.94
2019-06-07T04:55:26.006Z,999.88
2019-06-07T05:00:48.824Z,999.76
2019-06-07T05:05:26.980Z,999.56
2019-06-07T05:10:25.950Z,999.56
2019-06-07T05:15:25.826Z,999.53
2019-06-07T05:20:26.162Z,999.47
2019-06-07T05:25:25.893Z,999.44
2019-06-07T05:30:58.514Z,999.39
2019-06-07T05:35:26.733Z,999.25
2019-06-07T05:40:25.591Z,999.21
2019-06-07T05:45:25.536Z,999.28
2019-06-07T05:50:39.228Z,999.25
2019-06-07T05:55:26.450Z,998.98
2019-06-07T06:00:25.408Z,999.11
2019-06-07T06:05:34.291Z,999.02
2019-06-07T06:10:26.391Z,998.80
2019-06-07T06:15:41.717Z,998.85
2019-06-07T06:20:32.942Z,998.97
2019-06-07T06:25:32.527Z,998.89
2019-06-07T06:30:26.274Z,998.76
2019-06-07T06:35:25.302Z,998.64
2019-06-07T06:40:25.113Z,998.77
2019-06-07T06:45:25.238Z,998.72
2019-06-07T06:50:25.237Z,998.68
2019-06-07T06:55:24.989Z,998.56
2019-06-07T07:00:43.020Z,998.46
2019-06-07T07:05:25.966Z,998.30
2019-06-07T07:10:24.781Z,998.48
2019-06-07T07:15:24.766Z,998.36
2019-06-07T07:20:25.047Z,998.10
2019-06-07T07:25:24.801Z,998.20
2019-06-07T07:30:36.758Z,998.10
2019-06-07T07:35:25.574Z,998.09
2019-06-07T07:45:25.705Z,997.87
2019-06-07T07:50:24.528Z,997.67
2019-06-07T07:55:24.509Z,997.74
2019-06-07T08:00:50.046Z,997.50
2019-06-07T08:05:41.618Z,997.33
2019-06-07T08:10:25.429Z,997.23
2019-06-07T08:15:24.358Z,997.13
2019-06-07T08:20:24.239Z,997.31
2019-06-07T08:25:24.275Z,997.15
2019-06-07T08:30:48.036Z,997.10
2019-06-07T08:36:40.852Z,997.06
2019-06-07T08:40:25.088Z,997.04
2019-06-07T08:45:24.071Z,996.91
2019-06-07T08:50:23.993Z,996.62
2019-06-07T08:55:23.966Z,996.58
2019-06-07T09:05:24.930Z,996.38
2019-06-07T09:10:23.831Z,996.44
2019-06-07T09:15:24.569Z,996.21
2019-06-07T09:20:36.287Z,996.39
2019-06-07T09:25:24.747Z,996.26
2019-06-07T09:30:23.675Z,996.33
2019-06-07T09:35:23.728Z,995.84
2019-06-07T09:40:27.562Z,996.05
2019-06-07T09:45:23.569Z,996.10
2019-06-07T09:50:23.532Z,996.15
2019-06-07T09:55:25.297Z,996.34
2019-06-07T10:00:40.043Z,996.19
2019-06-07T10:05:24.403Z,996.10
2019-06-07T10:15:24.483Z,995.69
2019-06-07T10:20:23.287Z,995.83
2019-06-07T10:25:23.516Z,995.65
2019-06-07T10:30:23.217Z,995.55
2019-06-07T10:35:24.415Z,995.36
2019-06-07T10:40:23.389Z,995.27
2019-06-07T10:45:23.230Z,995.15
2019-06-07T10:50:23.218Z,994.94
2019-06-07T10:55:23.106Z,995.05
2019-06-07T11:00:23.071Z,994.96
2019-06-07T11:05:23.183Z,994.47
2019-06-07T11:10:23.137Z,994.67
2019-06-07T11:15:22.999Z,994.66
2019-06-07T11:20:23.007Z,994.43
2019-06-07T11:25:22.879Z,994.61
2019-06-07T11:30:22.827Z,994.50
2019-06-07T11:35:22.788Z,994.63
2019-06-07T11:40:33.879Z,994.38
2019-06-07T11:45:23.756Z,994.29
2019-06-07T11:50:23.753Z,994.35
2019-06-07T11:55:23.745Z,994.41
2019-06-07T12:00:22.754Z,994.42
2019-06-07T12:05:22.599Z,994.32
2019-06-07T12:10:23.249Z,994.32
2019-06-07T12:15:22.531Z,994.31
2019-06-07T12:20:22.520Z,994.29
2019-06-07T12:25:24.997Z,994.44
2019-06-07T12:30:27.289Z,994.43
2019-06-07T12:35:23.329Z,994.36
2019-06-07T12:40:30.092Z,994.50
2019-06-07T12:45:42.782Z,994.49
2019-06-07T12:50:25.286Z,994.41
2019-06-07T12:55:24.781Z,994.32
2019-06-07T13:00:22.416Z,994.37
2019-06-07T13:05:23.705Z,994.28
2019-06-07T13:10:22.183Z,994.29
2019-06-07T13:15:24.502Z,994.16
2019-06-07T13:20:22.685Z,994.06
2019-06-07T13:25:25.428Z,993.97
2019-06-07T13:30:23.464Z,994.07
2019-06-07T13:35:23.410Z,994.16
2019-06-07T13:40:23.158Z,994.01
2019-06-07T13:45:22.284Z,994.01
2019-06-07T13:50:21.890Z,993.93
2019-06-07T13:55:22.094Z,993.96
2019-06-07T14:00:23.227Z,993.80
2019-06-07T14:05:22.917Z,993.86
2019-06-07T14:10:21.732Z,994.03
2019-06-07T14:15:22.312Z,994.17
2019-06-07T14:20:26.742Z,994.19
2019-06-07T14:25:23.034Z,994.30
2019-06-07T14:30:21.796Z,994.43
2019-06-07T14:35:22.457Z,994.42
2019-06-07T14:40:23.020Z,994.48
2019-06-07T14:45:21.257Z,994.63
2019-06-07T14:50:21.388Z,994.64
2019-06-07T14:55:21.446Z,994.83
2019-06-07T15:00:21.163Z,994.95
2019-06-07T15:05:21.080Z,995.26
2019-06-07T15:10:21.055Z,995.66
2019-06-07T15:15:21.293Z,996.04
2019-06-07T15:20:21.004Z,996.62
2019-06-07T15:25:20.957Z,996.75
2019-06-07T15:30:21.186Z,996.89
2019-06-07T15:35:20.886Z,996.95
2019-06-07T15:40:20.867Z,996.79
2019-06-07T15:45:20.874Z,997.23
2019-06-07T15:50:20.919Z,997.22
2019-06-07T15:55:21.155Z,997.29
2019-06-07T16:00:20.996Z,997.37
2019-06-07T16:05:20.770Z,997.63
2019-06-07T16:10:20.764Z,997.56
2019-06-07T16:15:20.727Z,997.71
2019-06-07T16:20:20.723Z,997.72
2019-06-07T16:25:20.719Z,997.62
2019-06-07T16:30:20.612Z,997.85
2019-06-07T16:35:20.698Z,997.87
2019-06-07T16:40:20.908Z,997.70
2019-06-07T16:45:20.648Z,997.78
2019-06-07T16:50:20.506Z,997.26
2019-06-07T16:55:20.611Z,997.40
2019-06-07T17:00:20.375Z,997.28
2019-06-07T17:05:20.432Z,997.08
2019-06-07T17:10:20.515Z,996.38
2019-06-07T17:15:20.550Z,995.71
2019-06-07T17:20:20.369Z,996.37
2019-06-07T17:25:20.314Z,996.77
2019-06-07T17:30:20.284Z,996.73
2019-06-07T17:35:20.896Z,996.72
2019-06-07T17:40:20.223Z,996.72
2019-06-07T17:45:20.001Z,996.44
2019-06-07T17:50:20.000Z,996.42
2019-06-07T17:55:19.905Z,996.48
2019-06-07T18:00:28.785Z,996.57
2019-06-07T18:05:20.824Z,996.74
2019-06-07T18:10:19.796Z,996.37
2019-06-07T18:15:19.793Z,996.57
2019-06-07T18:20:19.804Z,996.59
2019-06-07T18:25:19.673Z,996.49
2019-06-07T18:30:19.629Z,996.44
2019-06-07T18:35:19.595Z,996.31
2019-06-07T18:40:19.541Z,996.31
2019-06-07T18:45:20.133Z,996.05
2019-06-07T18:50:19.474Z,996.12
2019-06-07T18:55:19.404Z,995.79
2019-06-07T19:00:19.380Z,995.59
2019-06-07T19:05:19.549Z,995.52
2019-06-07T19:10:19.323Z,996.05
2019-06-07T19:15:19.299Z,996.13
2019-06-07T19:20:23.482Z,995.91
2019-06-07T19:25:19.193Z,996.07
2019-06-07T19:30:19.160Z,996.20
2019-06-07T19:35:19.396Z,996.28
2019-06-07T19:40:19.113Z,996.39
2019-06-07T19:45:34.481Z,996.24
2019-06-07T19:50:20.112Z,996.27
2019-06-07T19:55:19.049Z,996.48
2019-06-07T20:00:19.002Z,996.37
2019-06-07T20:05:18.999Z,996.51
2019-06-07T20:10:18.933Z,996.45
2019-06-07T20:15:28.474Z,996.50
2019-06-07T20:20:19.906Z,996.52
2019-06-07T20:25:18.777Z,996.37
2019-06-07T20:30:18.798Z,996.49
2019-06-07T20:35:18.718Z,996.26
2019-06-07T20:40:24.117Z,996.39
2019-06-07T20:45:32.437Z,996.37
2019-06-07T20:50:20.109Z,996.44
2019-06-07T20:55:18.584Z,996.40
2019-06-07T21:00:22.041Z,996.33
2019-06-07T21:05:18.591Z,996.43
2019-06-07T21:10:18.806Z,996.45
2019-06-07T21:15:18.502Z,996.54
2019-06-07T21:20:18.374Z,996.64
2019-06-07T21:25:18.375Z,996.61
2019-06-07T21:30:18.293Z,996.58
2019-06-07T21:35:18.318Z,996.66
2019-06-07T21:40:18.343Z,996.99
2019-06-07T21:45:18.265Z,997.04
2019-06-07T21:50:18.401Z,997.34
2019-06-07T21:55:18.202Z,997.30
2019-06-07T22:00:18.379Z,997.45
2019-06-07T22:05:18.131Z,997.70
2019-06-07T22:10:18.146Z,997.86
2019-06-07T22:15:32.150Z,997.77
2019-06-07T22:20:19.004Z,997.74
2019-06-07T22:25:18.181Z,997.81
2019-06-07T22:30:18.756Z,997.67
2019-06-07T22:35:19.250Z,997.40
2019-06-07T22:40:18.653Z,997.76
2019-06-07T22:45:18.969Z,997.45
2019-06-07T22:50:18.505Z,997.56
2019-06-07T22:55:18.208Z,997.34
2019-06-07T23:00:19.478Z,997.45
2019-06-07T23:05:18.879Z,997.36
2019-06-07T23:10:19.379Z,997.54
2019-06-07T23:15:18.270Z,997.54
2019-06-07T23:20:18.027Z,997.44
2019-06-07T23:25:20.903Z,997.38
2019-06-07T23:30:19.156Z,997.36
2019-06-07T23:35:18.949Z,997.29
2019-06-07T23:40:17.691Z,997.58
2019-06-07T23:45:17.668Z,997.53
2019-06-07T23:50:17.731Z,997.54
2019-06-07T23:55:17.940Z,997.59
